Terminal Aerodrome Forecast
Issued by NWS

Home | Current Version | Previous Version | Text Only | Print | Product List | Glossary On
Versions: 1 2 3 4 5 6 7 8 9 10 11 12 13 14 15 16 17 18 19 20 21 22 23 24 25 26 27 28 29 30 31 32 33 34 35 36 37 38 39 40 41 42 43 44 45 46 47 48 49 50
000
FTAK31 PANC 222106 AAD
TAFADL
TAF AMD
PADL 222106Z 2221/2318 06005KT P6SM OVC025
      TEMPO 2221/2224 OVC012
     FM230000 08014G22KT P6SM VCSH FEW010 OVC025
     FM230500 07018G28KT P6SM -RA SCT010 OVC025
     FM231200 10015G25KT P6SM VCSH OVC040=

USA.gov is the U.S. government's official web portal to all federal, state and local government web resources and services.